Alvin, Wisconsin
Current Conditions -  °F | °C
As of 2:55 AM on Monday 24 Nov 2014 (Local Time) from KEGV Reporting Station
Moderate Fog Moderate Fog  
Wind Chill: 32°   Ceiling: 400
Heat Index: 38°   Visibility: 0.5mi
Dew Point: 38°   Wind: 8mph
Humidity: 100%   Direction: 340°NNW
Pressure: 29.07"   Gusts: NA
Location:  45.9186°N, 88.7601°W
Report Text: KEGV 240855Z AUTO 34007KT 1/2SM FG OVC004 04/04 A2907 RMK AO2 60002 T00350035
Loading
Personal Weather Stations






























Interactive Weather Map New forecast layout! Learn more

10-Day Weather Forecast

Advertisements
Track Severe Weather on mobile